sensor_id;sensor_type;location;lat;lon;timestamp;P1;durP1;ratioP1;P2;durP2;ratioP2
40286;SDS011;25998;46.604;13.610;2023-01-26T00:00:39;62.25;;;28.92;;
40286;SDS011;25998;46.604;13.610;2023-01-26T00:03:50;212.88;;;38.83;;
40286;SDS011;25998;46.604;13.610;2023-01-26T00:07:01;159.32;;;33.65;;
40286;SDS011;25998;46.604;13.610;2023-01-26T00:10:11;308.58;;;36.90;;
40286;SDS011;25998;46.604;13.610;2023-01-26T00:13:24;428.90;;;47.83;;
40286;SDS011;25998;46.604;13.610;2023-01-26T00:16:34;239.00;;;34.95;;
40286;SDS011;25998;46.604;13.610;2023-01-26T00:19:45;287.27;;;40.38;;
40286;SDS011;25998;46.604;13.610;2023-01-26T00:22:56;201.30;;;37.72;;
40286;SDS011;25998;46.604;13.610;2023-01-26T00:26:08;107.20;;;33.75;;
40286;SDS011;25998;46.604;13.610;2023-01-26T00:29:19;143.65;;;34.42;;
40286;SDS011;25998;46.604;13.610;2023-01-26T00:32:30;80.72;;;31.35;;
40286;SDS011;25998;46.604;13.610;2023-01-26T00:35:43;58.67;;;30.88;;
40286;SDS011;25998;46.604;13.610;2023-01-26T00:39:02;73.72;;;31.20;;
40286;SDS011;25998;46.604;13.610;2023-01-26T00:42:13;64.32;;;30.23;;
40286;SDS011;25998;46.604;13.610;2023-01-26T00:45:24;52.95;;;27.80;;
40286;SDS011;25998;46.604;13.610;2023-01-26T00:48:36;62.13;;;29.10;;
40286;SDS011;25998;46.604;13.610;2023-01-26T00:51:47;49.85;;;27.10;;
40286;SDS011;25998;46.604;13.610;2023-01-26T00:54:58;57.92;;;29.38;;
40286;SDS011;25998;46.604;13.610;2023-01-26T00:58:09;96.40;;;33.53;;
40286;SDS011;25998;46.604;13.610;2023-01-26T01:01:20;850.40;;;74.80;;
40286;SDS011;25998;46.604;13.610;2023-01-26T01:04:31;818.17;;;74.82;;
40286;SDS011;25998;46.604;13.610;2023-01-26T01:07:42;698.22;;;69.03;;
40286;SDS011;25998;46.604;13.610;2023-01-26T01:11:03;581.03;;;57.15;;
40286;SDS011;25998;46.604;13.610;2023-01-26T01:14:16;709.47;;;72.57;;
40286;SDS011;25998;46.604;13.610;2023-01-26T01:17:27;712.88;;;67.63;;
40286;SDS011;25998;46.604;13.610;2023-01-26T01:20:39;637.60;;;64.75;;
40286;SDS011;25998;46.604;13.610;2023-01-26T01:23:50;602.95;;;58.90;;
40286;SDS011;25998;46.604;13.610;2023-01-26T01:27:01;490.85;;;49.75;;
40286;SDS011;25998;46.604;13.610;2023-01-26T01:30:12;348.45;;;44.47;;
40286;SDS011;25998;46.604;13.610;2023-01-26T01:33:23;311.67;;;45.90;;
40286;SDS011;25998;46.604;13.610;2023-01-26T01:36:34;226.43;;;37.95;;
40286;SDS011;25998;46.604;13.610;2023-01-26T01:39:45;97.22;;;32.92;;
40286;SDS011;25998;46.604;13.610;2023-01-26T01:42:58;121.38;;;33.42;;
40286;SDS011;25998;46.604;13.610;2023-01-26T01:49:39;75.80;;;29.98;;
40286;SDS011;25998;46.604;13.610;2023-01-26T01:52:54;73.25;;;29.23;;
40286;SDS011;25998;46.604;13.610;2023-01-26T01:56:11;85.40;;;30.52;;
40286;SDS011;25998;46.604;13.610;2023-01-26T01:59:30;70.18;;;28.13;;
40286;SDS011;25998;46.604;13.610;2023-01-26T02:02:43;74.55;;;30.17;;
40286;SDS011;25998;46.604;13.610;2023-01-26T02:06:17;78.25;;;31.35;;
40286;SDS011;25998;46.604;13.610;2023-01-26T02:09:38;174.48;;;38.40;;
40286;SDS011;25998;46.604;13.610;2023-01-26T02:13:09;186.70;;;38.28;;
40286;SDS011;25998;46.604;13.610;2023-01-26T02:16:21;149.13;;;37.33;;
40286;SDS011;25998;46.604;13.610;2023-01-26T02:19:36;96.45;;;32.40;;
40286;SDS011;25998;46.604;13.610;2023-01-26T02:22:59;79.63;;;30.85;;
40286;SDS011;25998;46.604;13.610;2023-01-26T02:26:36;328.08;;;42.72;;
40286;SDS011;25998;46.604;13.610;2023-01-26T02:29:47;466.98;;;51.05;;
40286;SDS011;25998;46.604;13.610;2023-01-26T02:32:58;410.85;;;48.35;;
40286;SDS011;25998;46.604;13.610;2023-01-26T02:36:11;426.13;;;49.13;;
40286;SDS011;25998;46.604;13.610;2023-01-26T02:39:40;104.53;;;31.95;;
40286;SDS011;25998;46.604;13.610;2023-01-26T02:42:58;378.75;;;46.28;;
40286;SDS011;25998;46.604;13.610;2023-01-26T02:46:09;368.38;;;43.25;;
40286;SDS011;25998;46.604;13.610;2023-01-26T02:49:20;216.48;;;35.75;;
40286;SDS011;25998;46.604;13.610;2023-01-26T02:52:49;230.00;;;39.88;;
40286;SDS011;25998;46.604;13.610;2023-01-26T02:56:00;349.73;;;44.33;;
40286;SDS011;25998;46.604;13.610;2023-01-26T02:59:10;356.23;;;42.33;;
40286;SDS011;25998;46.604;13.610;2023-01-26T03:02:21;379.70;;;45.25;;
40286;SDS011;25998;46.604;13.610;2023-01-26T03:05:32;620.15;;;60.92;;
40286;SDS011;25998;46.604;13.610;2023-01-26T03:08:43;764.63;;;70.22;;
40286;SDS011;25998;46.604;13.610;2023-01-26T03:11:54;723.95;;;71.05;;
40286;SDS011;25998;46.604;13.610;2023-01-26T03:15:05;457.33;;;49.67;;
40286;SDS011;25998;46.604;13.610;2023-01-26T03:18:35;496.13;;;49.53;;
40286;SDS011;25998;46.604;13.610;2023-01-26T03:22:05;574.25;;;57.42;;
40286;SDS011;25998;46.604;13.610;2023-01-26T03:25:36;524.20;;;59.00;;
40286;SDS011;25998;46.604;13.610;2023-01-26T03:29:05;611.73;;;62.93;;
40286;SDS011;25998;46.604;13.610;2023-01-26T03:32:17;514.70;;;54.13;;
40286;SDS011;25998;46.604;13.610;2023-01-26T03:35:28;519.67;;;54.47;;
40286;SDS011;25998;46.604;13.610;2023-01-26T03:38:38;426.83;;;46.85;;
40286;SDS011;25998;46.604;13.610;2023-01-26T03:41:49;460.08;;;50.38;;
40286;SDS011;25998;46.604;13.610;2023-01-26T03:45:18;137.70;;;29.27;;
40286;SDS011;25998;46.604;13.610;2023-01-26T03:48:48;73.95;;;27.33;;
40286;SDS011;25998;46.604;13.610;2023-01-26T03:52:17;511.25;;;54.60;;
40286;SDS011;25998;46.604;13.610;2023-01-26T03:55:47;338.80;;;43.70;;
40286;SDS011;25998;46.604;13.610;2023-01-26T03:59:16;182.70;;;33.67;;
40286;SDS011;25998;46.604;13.610;2023-01-26T04:02:30;66.32;;;27.42;;
40286;SDS011;25998;46.604;13.610;2023-01-26T04:05:59;74.80;;;30.55;;
40286;SDS011;25998;46.604;13.610;2023-01-26T04:09:28;77.75;;;31.50;;
40286;SDS011;25998;46.604;13.610;2023-01-26T04:12:40;107.55;;;32.10;;
40286;SDS011;25998;46.604;13.610;2023-01-26T04:15:51;107.38;;;31.67;;
40286;SDS011;25998;46.604;13.610;2023-01-26T04:19:20;440.15;;;46.80;;
40286;SDS011;25998;46.604;13.610;2023-01-26T04:22:50;344.70;;;43.58;;
40286;SDS011;25998;46.604;13.610;2023-01-26T04:26:01;190.45;;;34.40;;
40286;SDS011;25998;46.604;13.610;2023-01-26T04:29:13;205.00;;;37.47;;
40286;SDS011;25998;46.604;13.610;2023-01-26T04:32:24;421.25;;;47.80;;
40286;SDS011;25998;46.604;13.610;2023-01-26T04:35:36;334.92;;;44.97;;
40286;SDS011;25998;46.604;13.610;2023-01-26T04:38:47;116.55;;;32.63;;
40286;SDS011;25998;46.604;13.610;2023-01-26T04:41:58;89.65;;;30.35;;
40286;SDS011;25998;46.604;13.610;2023-01-26T04:45:09;159.27;;;34.50;;
40286;SDS011;25998;46.604;13.610;2023-01-26T04:48:21;301.73;;;41.25;;
40286;SDS011;25998;46.604;13.610;2023-01-26T04:51:31;318.40;;;44.58;;
40286;SDS011;25998;46.604;13.610;2023-01-26T04:54:42;124.25;;;34.63;;
40286;SDS011;25998;46.604;13.610;2023-01-26T04:57:53;74.25;;;32.25;;
40286;SDS011;25998;46.604;13.610;2023-01-26T05:01:07;65.05;;;29.65;;
40286;SDS011;25998;46.604;13.610;2023-01-26T05:04:18;68.75;;;29.75;;
40286;SDS011;25998;46.604;13.610;2023-01-26T05:07:28;70.85;;;29.45;;
40286;SDS011;25998;46.604;13.610;2023-01-26T05:10:39;60.97;;;28.85;;
40286;SDS011;25998;46.604;13.610;2023-01-26T05:13:50;67.82;;;28.73;;
40286;SDS011;25998;46.604;13.610;2023-01-26T05:17:01;69.30;;;31.17;;
40286;SDS011;25998;46.604;13.610;2023-01-26T05:20:12;59.97;;;30.42;;
40286;SDS011;25998;46.604;13.610;2023-01-26T05:23:23;58.58;;;30.08;;
40286;SDS011;25998;46.604;13.610;2023-01-26T05:26:34;60.60;;;30.88;;
40286;SDS011;25998;46.604;13.610;2023-01-26T05:29:45;60.15;;;31.45;;
40286;SDS011;25998;46.604;13.610;2023-01-26T05:33:06;51.22;;;28.17;;
40286;SDS011;25998;46.604;13.610;2023-01-26T05:36:19;55.17;;;27.75;;
40286;SDS011;25998;46.604;13.610;2023-01-26T05:39:30;49.80;;;28.83;;
40286;SDS011;25998;46.604;13.610;2023-01-26T05:42:41;52.55;;;27.75;;
40286;SDS011;25998;46.604;13.610;2023-01-26T05:45:53;42.92;;;26.83;;
40286;SDS011;25998;46.604;13.610;2023-01-26T05:49:03;44.63;;;26.27;;
40286;SDS011;25998;46.604;13.610;2023-01-26T05:52:15;42.83;;;25.88;;
40286;SDS011;25998;46.604;13.610;2023-01-26T05:55:27;41.10;;;24.67;;
40286;SDS011;25998;46.604;13.610;2023-01-26T05:58:38;33.70;;;22.40;;
40286;SDS011;25998;46.604;13.610;2023-01-26T06:01:49;39.08;;;24.50;;
40286;SDS011;25998;46.604;13.610;2023-01-26T06:04:59;38.35;;;23.95;;
40286;SDS011;25998;46.604;13.610;2023-01-26T06:08:10;36.40;;;22.55;;
40286;SDS011;25998;46.604;13.610;2023-01-26T06:11:21;40.15;;;24.60;;
40286;SDS011;25998;46.604;13.610;2023-01-26T06:14:32;38.05;;;23.58;;
40286;SDS011;25998;46.604;13.610;2023-01-26T06:17:43;34.25;;;22.58;;
40286;SDS011;25998;46.604;13.610;2023-01-26T06:20:57;36.80;;;23.17;;
40286;SDS011;25998;46.604;13.610;2023-01-26T06:24:09;35.92;;;22.20;;
40286;SDS011;25998;46.604;13.610;2023-01-26T06:27:20;34.22;;;22.83;;
40286;SDS011;25998;46.604;13.610;2023-01-26T06:30:31;35.03;;;21.63;;
40286;SDS011;25998;46.604;13.610;2023-01-26T06:33:43;34.60;;;22.63;;
40286;SDS011;25998;46.604;13.610;2023-01-26T06:36:54;31.45;;;21.60;;
40286;SDS011;25998;46.604;13.610;2023-01-26T06:40:05;31.85;;;21.88;;
40286;SDS011;25998;46.604;13.610;2023-01-26T06:43:17;34.10;;;22.17;;
40286;SDS011;25998;46.604;13.610;2023-01-26T06:46:28;33.05;;;20.52;;
40286;SDS011;25998;46.604;13.610;2023-01-26T06:49:38;30.02;;;20.52;;
40286;SDS011;25998;46.604;13.610;2023-01-26T06:52:50;30.63;;;19.98;;
40286;SDS011;25998;46.604;13.610;2023-01-26T06:56:03;29.20;;;20.08;;
40286;SDS011;25998;46.604;13.610;2023-01-26T06:59:15;31.08;;;21.13;;
40286;SDS011;25998;46.604;13.610;2023-01-26T07:02:25;28.65;;;19.67;;
40286;SDS011;25998;46.604;13.610;2023-01-26T07:05:36;28.20;;;18.45;;
40286;SDS011;25998;46.604;13.610;2023-01-26T07:08:47;29.63;;;18.90;;
40286;SDS011;25998;46.604;13.610;2023-01-26T07:11:58;31.70;;;19.63;;
40286;SDS011;25998;46.604;13.610;2023-01-26T07:15:09;27.58;;;18.13;;
40286;SDS011;25998;46.604;13.610;2023-01-26T07:18:21;30.33;;;19.08;;
40286;SDS011;25998;46.604;13.610;2023-01-26T07:21:32;26.23;;;18.48;;
40286;SDS011;25998;46.604;13.610;2023-01-26T07:24:44;30.35;;;19.35;;
40286;SDS011;25998;46.604;13.610;2023-01-26T07:27:55;23.15;;;16.67;;
40286;SDS011;25998;46.604;13.610;2023-01-26T07:31:07;30.35;;;20.08;;
40286;SDS011;25998;46.604;13.610;2023-01-26T07:34:20;28.50;;;18.40;;
40286;SDS011;25998;46.604;13.610;2023-01-26T07:37:31;29.45;;;19.27;;
40286;SDS011;25998;46.604;13.610;2023-01-26T07:40:42;30.00;;;18.20;;
40286;SDS011;25998;46.604;13.610;2023-01-26T07:43:52;28.50;;;19.17;;
40286;SDS011;25998;46.604;13.610;2023-01-26T07:47:03;31.33;;;19.58;;
40286;SDS011;25998;46.604;13.610;2023-01-26T07:50:14;24.02;;;16.63;;
40286;SDS011;25998;46.604;13.610;2023-01-26T07:53:25;26.90;;;16.75;;
40286;SDS011;25998;46.604;13.610;2023-01-26T07:56:38;23.02;;;16.20;;
40286;SDS011;25998;46.604;13.610;2023-01-26T07:59:49;23.20;;;15.77;;
40286;SDS011;25998;46.604;13.610;2023-01-26T08:02:59;21.10;;;13.77;;
40286;SDS011;25998;46.604;13.610;2023-01-26T08:06:11;21.35;;;13.00;;
40286;SDS011;25998;46.604;13.610;2023-01-26T08:09:22;21.05;;;12.82;;
40286;SDS011;25998;46.604;13.610;2023-01-26T08:12:34;19.85;;;12.63;;
40286;SDS011;25998;46.604;13.610;2023-01-26T08:15:45;18.67;;;11.60;;
40286;SDS011;25998;46.604;13.610;2023-01-26T08:18:55;16.00;;;10.02;;
40286;SDS011;25998;46.604;13.610;2023-01-26T08:22:06;21.10;;;12.07;;
40286;SDS011;25998;46.604;13.610;2023-01-26T08:25:17;15.07;;;10.07;;
40286;SDS011;25998;46.604;13.610;2023-01-26T08:28:28;14.77;;;9.88;;
40286;SDS011;25998;46.604;13.610;2023-01-26T08:31:39;12.27;;;8.43;;
40286;SDS011;25998;46.604;13.610;2023-01-26T08:34:49;14.43;;;9.73;;
40286;SDS011;25998;46.604;13.610;2023-01-26T08:38:00;11.82;;;8.27;;
40286;SDS011;25998;46.604;13.610;2023-01-26T08:41:11;10.13;;;7.30;;
40286;SDS011;25998;46.604;13.610;2023-01-26T08:44:22;12.52;;;9.05;;
40286;SDS011;25998;46.604;13.610;2023-01-26T08:47:33;12.73;;;8.90;;
40286;SDS011;25998;46.604;13.610;2023-01-26T08:50:45;13.18;;;8.65;;
40286;SDS011;25998;46.604;13.610;2023-01-26T08:53:56;12.07;;;8.52;;
40286;SDS011;25998;46.604;13.610;2023-01-26T08:57:07;11.48;;;7.97;;
40286;SDS011;25998;46.604;13.610;2023-01-26T09:00:17;12.43;;;8.38;;
40286;SDS011;25998;46.604;13.610;2023-01-26T09:03:28;11.48;;;7.75;;
40286;SDS011;25998;46.604;13.610;2023-01-26T09:06:39;9.70;;;7.07;;
40286;SDS011;25998;46.604;13.610;2023-01-26T09:09:50;11.13;;;7.57;;
40286;SDS011;25998;46.604;13.610;2023-01-26T09:13:01;10.13;;;6.82;;
40286;SDS011;25998;46.604;13.610;2023-01-26T09:16:14;10.70;;;7.43;;
40286;SDS011;25998;46.604;13.610;2023-01-26T09:19:27;9.52;;;7.15;;
40286;SDS011;25998;46.604;13.610;2023-01-26T09:22:38;9.10;;;6.82;;
40286;SDS011;25998;46.604;13.610;2023-01-26T09:25:52;10.35;;;7.03;;
40286;SDS011;25998;46.604;13.610;2023-01-26T09:29:03;9.32;;;6.72;;
40286;SDS011;25998;46.604;13.610;2023-01-26T09:32:14;9.95;;;7.55;;
40286;SDS011;25998;46.604;13.610;2023-01-26T09:35:25;11.88;;;7.38;;
40286;SDS011;25998;46.604;13.610;2023-01-26T09:38:37;8.82;;;5.95;;
40286;SDS011;25998;46.604;13.610;2023-01-26T09:41:59;8.85;;;6.70;;
40286;SDS011;25998;46.604;13.610;2023-01-26T09:45:23;8.40;;;5.95;;
40286;SDS011;25998;46.604;13.610;2023-01-26T09:48:43;8.05;;;5.75;;
40286;SDS011;25998;46.604;13.610;2023-01-26T09:52:09;8.52;;;6.07;;
40286;SDS011;25998;46.604;13.610;2023-01-26T09:55:35;10.23;;;6.32;;
40286;SDS011;25998;46.604;13.610;2023-01-26T10:09:13;8.18;;;5.95;;
40286;SDS011;25998;46.604;13.610;2023-01-26T10:12:33;8.68;;;5.80;;
40286;SDS011;25998;46.604;13.610;2023-01-26T10:15:50;8.25;;;5.63;;
40286;SDS011;25998;46.604;13.610;2023-01-26T10:19:08;7.80;;;5.50;;
40286;SDS011;25998;46.604;13.610;2023-01-26T10:22:45;8.38;;;5.88;;
40286;SDS011;25998;46.604;13.610;2023-01-26T10:29:27;8.15;;;6.10;;
40286;SDS011;25998;46.604;13.610;2023-01-26T10:32:38;7.38;;;5.70;;
40286;SDS011;25998;46.604;13.610;2023-01-26T10:35:51;8.77;;;6.55;;
40286;SDS011;25998;46.604;13.610;2023-01-26T10:39:06;9.15;;;5.50;;
40286;SDS011;25998;46.604;13.610;2023-01-26T10:42:18;7.68;;;5.53;;
40286;SDS011;25998;46.604;13.610;2023-01-26T10:45:30;7.75;;;5.80;;
40286;SDS011;25998;46.604;13.610;2023-01-26T10:48:44;6.97;;;5.28;;
40286;SDS011;25998;46.604;13.610;2023-01-26T10:52:06;7.95;;;5.80;;
40286;SDS011;25998;46.604;13.610;2023-01-26T10:55:28;7.82;;;5.75;;
40286;SDS011;25998;46.604;13.610;2023-01-26T10:58:51;7.43;;;6.32;;
40286;SDS011;25998;46.604;13.610;2023-01-26T11:08:37;9.35;;;6.30;;
40286;SDS011;25998;46.604;13.610;2023-01-26T11:11:58;8.52;;;6.72;;
40286;SDS011;25998;46.604;13.610;2023-01-26T11:15:16;7.75;;;6.38;;
40286;SDS011;25998;46.604;13.610;2023-01-26T11:18:53;7.82;;;6.22;;
40286;SDS011;25998;46.604;13.610;2023-01-26T11:22:15;8.27;;;6.40;;
40286;SDS011;25998;46.604;13.610;2023-01-26T11:26:43;8.57;;;6.45;;
40286;SDS011;25998;46.604;13.610;2023-01-26T11:29:34;8.32;;;5.97;;
40286;SDS011;25998;46.604;13.610;2023-01-26T11:36:12;9.02;;;6.35;;
40286;SDS011;25998;46.604;13.610;2023-01-26T11:43:03;9.57;;;6.53;;
40286;SDS011;25998;46.604;13.610;2023-01-26T11:53:14;8.38;;;6.47;;
40286;SDS011;25998;46.604;13.610;2023-01-26T12:00:19;9.57;;;6.38;;
40286;SDS011;25998;46.604;13.610;2023-01-26T12:03:48;7.47;;;6.15;;
40286;SDS011;25998;46.604;13.610;2023-01-26T12:07:02;9.02;;;6.95;;
40286;SDS011;25998;46.604;13.610;2023-01-26T12:10:28;10.55;;;6.90;;
40286;SDS011;25998;46.604;13.610;2023-01-26T12:13:45;9.10;;;7.45;;
40286;SDS011;25998;46.604;13.610;2023-01-26T12:21:03;11.45;;;7.72;;
40286;SDS011;25998;46.604;13.610;2023-01-26T12:24:21;11.75;;;8.10;;
40286;SDS011;25998;46.604;13.610;2023-01-26T12:27:43;10.07;;;7.90;;
40286;SDS011;25998;46.604;13.610;2023-01-26T12:31:20;11.73;;;8.47;;
40286;SDS011;25998;46.604;13.610;2023-01-26T12:34:41;12.15;;;8.98;;
40286;SDS011;25998;46.604;13.610;2023-01-26T12:37:55;17.40;;;11.07;;
40286;SDS011;25998;46.604;13.610;2023-01-26T12:44:54;14.23;;;9.90;;
40286;SDS011;25998;46.604;13.610;2023-01-26T12:48:15;14.45;;;10.40;;
40286;SDS011;25998;46.604;13.610;2023-01-26T12:59:10;23.90;;;16.00;;
40286;SDS011;25998;46.604;13.610;2023-01-26T13:02:35;17.10;;;11.65;;
40286;SDS011;25998;46.604;13.610;2023-01-26T13:05:57;15.43;;;10.48;;
40286;SDS011;25998;46.604;13.610;2023-01-26T13:09:28;14.05;;;9.88;;
40286;SDS011;25998;46.604;13.610;2023-01-26T13:12:43;17.55;;;11.65;;
40286;SDS011;25998;46.604;13.610;2023-01-26T13:22:53;12.57;;;9.02;;
40286;SDS011;25998;46.604;13.610;2023-01-26T13:26:18;13.90;;;9.32;;
40286;SDS011;25998;46.604;13.610;2023-01-26T13:29:35;14.35;;;10.90;;
40286;SDS011;25998;46.604;13.610;2023-01-26T13:36:34;13.73;;;9.68;;
40286;SDS011;25998;46.604;13.610;2023-01-26T13:39:51;14.80;;;9.95;;
40286;SDS011;25998;46.604;13.610;2023-01-26T13:47:36;13.95;;;10.30;;
40286;SDS011;25998;46.604;13.610;2023-01-26T13:50:50;14.60;;;9.98;;
40286;SDS011;25998;46.604;13.610;2023-01-26T13:54:11;34.45;;;10.77;;
40286;SDS011;25998;46.604;13.610;2023-01-26T13:57:24;15.95;;;9.05;;
40286;SDS011;25998;46.604;13.610;2023-01-26T14:00:36;18.75;;;10.05;;
40286;SDS011;25998;46.604;13.610;2023-01-26T14:03:47;11.65;;;9.07;;
40286;SDS011;25998;46.604;13.610;2023-01-26T14:07:15;13.10;;;9.02;;
40286;SDS011;25998;46.604;13.610;2023-01-26T14:10:33;13.95;;;9.10;;
40286;SDS011;25998;46.604;13.610;2023-01-26T14:13:52;19.15;;;10.10;;
40286;SDS011;25998;46.604;13.610;2023-01-26T14:17:27;15.95;;;9.85;;
40286;SDS011;25998;46.604;13.610;2023-01-26T14:20:40;16.83;;;9.85;;
40286;SDS011;25998;46.604;13.610;2023-01-26T14:23:54;13.90;;;9.63;;
40286;SDS011;25998;46.604;13.610;2023-01-26T14:27:14;28.45;;;18.48;;
40286;SDS011;25998;46.604;13.610;2023-01-26T14:30:38;14.00;;;9.88;;
40286;SDS011;25998;46.604;13.610;2023-01-26T14:33:51;14.65;;;10.30;;
40286;SDS011;25998;46.604;13.610;2023-01-26T14:37:07;13.85;;;9.88;;
40286;SDS011;25998;46.604;13.610;2023-01-26T14:40:27;12.00;;;9.35;;
40286;SDS011;25998;46.604;13.610;2023-01-26T14:43:37;13.15;;;9.40;;
40286;SDS011;25998;46.604;13.610;2023-01-26T14:50:06;17.80;;;9.57;;
40286;SDS011;25998;46.604;13.610;2023-01-26T14:53:21;13.15;;;9.20;;
40286;SDS011;25998;46.604;13.610;2023-01-26T14:56:34;14.02;;;10.10;;
40286;SDS011;25998;46.604;13.610;2023-01-26T14:59:48;22.38;;;14.35;;
40286;SDS011;25998;46.604;13.610;2023-01-26T15:03:03;17.75;;;11.45;;
40286;SDS011;25998;46.604;13.610;2023-01-26T15:06:20;13.40;;;9.13;;
40286;SDS011;25998;46.604;13.610;2023-01-26T15:09:37;12.32;;;9.77;;
40286;SDS011;25998;46.604;13.610;2023-01-26T15:12:54;14.30;;;9.63;;
40286;SDS011;25998;46.604;13.610;2023-01-26T15:19:30;19.02;;;11.82;;
40286;SDS011;25998;46.604;13.610;2023-01-26T15:22:48;13.60;;;9.43;;
40286;SDS011;25998;46.604;13.610;2023-01-26T15:26:12;17.77;;;11.18;;
40286;SDS011;25998;46.604;13.610;2023-01-26T15:29:32;12.00;;;8.27;;
40286;SDS011;25998;46.604;13.610;2023-01-26T15:32:44;12.45;;;8.63;;
40286;SDS011;25998;46.604;13.610;2023-01-26T15:35:57;13.77;;;8.27;;
40286;SDS011;25998;46.604;13.610;2023-01-26T15:39:12;12.30;;;8.57;;
40286;SDS011;25998;46.604;13.610;2023-01-26T15:42:25;10.40;;;7.82;;
40286;SDS011;25998;46.604;13.610;2023-01-26T15:45:38;10.80;;;8.30;;
40286;SDS011;25998;46.604;13.610;2023-01-26T15:48:52;13.27;;;9.50;;
40286;SDS011;25998;46.604;13.610;2023-01-26T15:52:12;11.80;;;7.78;;
40286;SDS011;25998;46.604;13.610;2023-01-26T15:55:34;12.40;;;8.60;;
40286;SDS011;25998;46.604;13.610;2023-01-26T15:58:45;13.32;;;8.35;;
40286;SDS011;25998;46.604;13.610;2023-01-26T16:01:56;12.00;;;8.50;;
40286;SDS011;25998;46.604;13.610;2023-01-26T16:05:11;11.95;;;8.70;;
40286;SDS011;25998;46.604;13.610;2023-01-26T16:08:28;13.20;;;8.15;;
40286;SDS011;25998;46.604;13.610;2023-01-26T16:11:56;10.95;;;7.97;;
40286;SDS011;25998;46.604;13.610;2023-01-26T16:15:41;11.38;;;8.30;;
40286;SDS011;25998;46.604;13.610;2023-01-26T16:18:44;17.40;;;11.73;;
40286;SDS011;25998;46.604;13.610;2023-01-26T16:21:55;12.43;;;8.30;;
40286;SDS011;25998;46.604;13.610;2023-01-26T16:25:25;10.77;;;7.95;;
40286;SDS011;25998;46.604;13.610;2023-01-26T16:28:38;12.13;;;8.02;;
40286;SDS011;25998;46.604;13.610;2023-01-26T16:31:53;10.30;;;7.47;;
40286;SDS011;25998;46.604;13.610;2023-01-26T16:35:11;14.68;;;8.90;;
40286;SDS011;25998;46.604;13.610;2023-01-26T16:38:24;12.75;;;8.05;;
40286;SDS011;25998;46.604;13.610;2023-01-26T16:41:35;12.02;;;8.02;;
40286;SDS011;25998;46.604;13.610;2023-01-26T16:44:45;12.35;;;7.78;;
40286;SDS011;25998;46.604;13.610;2023-01-26T16:47:57;13.15;;;9.27;;
40286;SDS011;25998;46.604;13.610;2023-01-26T16:51:15;12.77;;;8.75;;
40286;SDS011;25998;46.604;13.610;2023-01-26T16:54:30;12.93;;;8.93;;
40286;SDS011;25998;46.604;13.610;2023-01-26T16:57:41;15.85;;;10.30;;
40286;SDS011;25998;46.604;13.610;2023-01-26T17:00:53;13.27;;;11.00;;
40286;SDS011;25998;46.604;13.610;2023-01-26T17:04:04;12.73;;;9.07;;
40286;SDS011;25998;46.604;13.610;2023-01-26T17:07:15;12.95;;;9.23;;
40286;SDS011;25998;46.604;13.610;2023-01-26T17:10:26;13.63;;;8.90;;
40286;SDS011;25998;46.604;13.610;2023-01-26T17:13:37;12.85;;;8.77;;
40286;SDS011;25998;46.604;13.610;2023-01-26T17:16:47;17.08;;;11.48;;
40286;SDS011;25998;46.604;13.610;2023-01-26T17:19:58;16.73;;;10.20;;
40286;SDS011;25998;46.604;13.610;2023-01-26T17:23:10;13.32;;;9.00;;
40286;SDS011;25998;46.604;13.610;2023-01-26T17:26:21;14.77;;;10.52;;
40286;SDS011;25998;46.604;13.610;2023-01-26T17:29:32;14.48;;;10.07;;
40286;SDS011;25998;46.604;13.610;2023-01-26T17:32:43;13.82;;;10.40;;
40286;SDS011;25998;46.604;13.610;2023-01-26T17:35:58;15.00;;;11.02;;
40286;SDS011;25998;46.604;13.610;2023-01-26T17:39:10;19.90;;;11.77;;
40286;SDS011;25998;46.604;13.610;2023-01-26T17:42:21;34.20;;;20.73;;
40286;SDS011;25998;46.604;13.610;2023-01-26T17:45:31;22.75;;;14.30;;
40286;SDS011;25998;46.604;13.610;2023-01-26T17:48:42;19.23;;;11.15;;
40286;SDS011;25998;46.604;13.610;2023-01-26T17:51:54;15.20;;;10.75;;
40286;SDS011;25998;46.604;13.610;2023-01-26T17:55:05;23.45;;;14.80;;
40286;SDS011;25998;46.604;13.610;2023-01-26T17:58:16;20.35;;;11.93;;
40286;SDS011;25998;46.604;13.610;2023-01-26T18:01:27;16.60;;;11.20;;
40286;SDS011;25998;46.604;13.610;2023-01-26T18:04:38;15.73;;;10.65;;
40286;SDS011;25998;46.604;13.610;2023-01-26T18:07:48;14.65;;;10.57;;
40286;SDS011;25998;46.604;13.610;2023-01-26T18:11:00;16.35;;;10.50;;
40286;SDS011;25998;46.604;13.610;2023-01-26T18:14:12;15.05;;;9.50;;
40286;SDS011;25998;46.604;13.610;2023-01-26T18:17:23;15.43;;;9.68;;
40286;SDS011;25998;46.604;13.610;2023-01-26T18:20:34;14.07;;;10.20;;
40286;SDS011;25998;46.604;13.610;2023-01-26T18:23:46;15.88;;;10.98;;
40286;SDS011;25998;46.604;13.610;2023-01-26T18:27:01;16.83;;;10.52;;
40286;SDS011;25998;46.604;13.610;2023-01-26T18:30:12;14.75;;;10.27;;
40286;SDS011;25998;46.604;13.610;2023-01-26T18:33:23;16.13;;;10.65;;
40286;SDS011;25998;46.604;13.610;2023-01-26T18:36:34;16.80;;;11.48;;
40286;SDS011;25998;46.604;13.610;2023-01-26T18:39:45;16.15;;;11.05;;
40286;SDS011;25998;46.604;13.610;2023-01-26T18:42:56;13.52;;;10.05;;
40286;SDS011;25998;46.604;13.610;2023-01-26T18:46:07;18.67;;;11.07;;
40286;SDS011;25998;46.604;13.610;2023-01-26T18:49:19;16.05;;;11.63;;
40286;SDS011;25998;46.604;13.610;2023-01-26T18:52:30;15.43;;;11.05;;
40286;SDS011;25998;46.604;13.610;2023-01-26T18:55:40;17.92;;;11.93;;
40286;SDS011;25998;46.604;13.610;2023-01-26T18:58:51;16.75;;;11.82;;
40286;SDS011;25998;46.604;13.610;2023-01-26T19:02:03;17.60;;;11.55;;
40286;SDS011;25998;46.604;13.610;2023-01-26T19:05:14;17.80;;;11.70;;
40286;SDS011;25998;46.604;13.610;2023-01-26T19:08:25;22.20;;;14.75;;
40286;SDS011;25998;46.604;13.610;2023-01-26T19:11:36;22.95;;;15.45;;
40286;SDS011;25998;46.604;13.610;2023-01-26T19:14:48;22.50;;;13.07;;
40286;SDS011;25998;46.604;13.610;2023-01-26T19:17:59;21.75;;;13.45;;
40286;SDS011;25998;46.604;13.610;2023-01-26T19:21:10;22.48;;;13.88;;
40286;SDS011;25998;46.604;13.610;2023-01-26T19:24:21;19.38;;;13.55;;
40286;SDS011;25998;46.604;13.610;2023-01-26T19:27:31;17.90;;;12.80;;
40286;SDS011;25998;46.604;13.610;2023-01-26T19:30:42;17.48;;;11.23;;
40286;SDS011;25998;46.604;13.610;2023-01-26T19:33:58;17.70;;;11.60;;
40286;SDS011;25998;46.604;13.610;2023-01-26T19:37:10;18.52;;;12.18;;
40286;SDS011;25998;46.604;13.610;2023-01-26T19:40:20;17.50;;;12.60;;
40286;SDS011;25998;46.604;13.610;2023-01-26T19:43:31;17.85;;;11.98;;
40286;SDS011;25998;46.604;13.610;2023-01-26T19:46:42;17.40;;;12.27;;
40286;SDS011;25998;46.604;13.610;2023-01-26T19:49:53;19.23;;;12.30;;
40286;SDS011;25998;46.604;13.610;2023-01-26T19:53:04;19.50;;;12.65;;
40286;SDS011;25998;46.604;13.610;2023-01-26T19:56:15;19.02;;;11.57;;
40286;SDS011;25998;46.604;13.610;2023-01-26T19:59:28;16.65;;;11.23;;
40286;SDS011;25998;46.604;13.610;2023-01-26T20:02:39;16.73;;;11.63;;